Time;durP1;ratioP1;P1;durP2;ratioP2;P2;SDS_P1;SDS_P2;PMS_P1;PMS_P2;Temp;Humidity;BMP_temperature;BMP_pressure;BME280_temperature;BME280_humidity;BME280_pressure;Samples;Min_cycle;Max_cycle;Signal;HPM_P1;HPM_P2
2022/04/26 03:38:30;;;;;;;25.48;21.77;;;10.00;99.90;;;;;;5077115;28;20081;-73
2022/04/26 03:40:59;;;;;;;26.48;22.63;;;10.00;99.90;;;;;;5078767;28;20392;-74
2022/04/26 03:43:25;;;;;;;23.55;21.15;;;10.00;99.90;;;;;;5081048;28;20393;-75
2022/04/26 03:45:50;;;;;;;22.83;20.40;;;9.90;99.90;;;;;;5073703;28;20024;-74
2022/04/26 03:48:16;;;;;;;17.60;15.77;;;10.00;99.90;;;;;;5072743;28;20021;-74
2022/04/26 03:50:41;;;;;;;19.58;17.58;;;10.10;99.90;;;;;;5079381;28;20137;-74
2022/04/26 03:53:07;;;;;;;17.58;15.75;;;10.20;99.90;;;;;;5078926;28;20118;-74
2022/04/26 03:55:32;;;;;;;16.98;14.65;;;10.30;99.90;;;;;;5074013;28;20081;-75
2022/04/26 03:57:58;;;;;;;15.48;13.88;;;10.40;99.90;;;;;;5071103;28;20036;-73
2022/04/26 04:00:24;;;;;;;15.52;14.13;;;10.50;99.90;;;;;;5072849;28;20105;-73
2022/04/26 04:02:50;;;;;;;15.32;13.93;;;10.40;99.90;;;;;;5071969;28;20033;-73
2022/04/26 04:05:15;;;;;;;15.88;14.27;;;10.40;99.90;;;;;;5071338;28;20017;-74
2022/04/26 04:07:41;;;;;;;13.73;12.25;;;10.40;99.90;;;;;;5073914;28;20210;-73
2022/04/26 04:10:07;;;;;;;14.27;12.82;;;10.40;99.90;;;;;;5080308;28;20054;-73
2022/04/26 04:12:32;;;;;;;14.50;13.10;;;10.40;99.90;;;;;;5072388;28;20053;-74
2022/04/26 04:14:58;;;;;;;14.77;13.38;;;10.40;99.90;;;;;;5078406;28;20117;-74
2022/04/26 04:17:23;;;;;;;15.40;13.90;;;10.30;99.90;;;;;;5074187;28;20025;-74
2022/04/26 04:19:49;;;;;;;16.00;14.38;;;10.20;99.90;;;;;;5073918;28;20024;-74
2022/04/26 04:22:15;;;;;;;16.70;15.10;;;10.10;99.90;;;;;;5073650;28;20059;-75
2022/04/26 04:24:40;;;;;;;17.83;16.02;;;10.10;99.90;;;;;;5073820;28;20116;-73
2022/04/26 04:27:06;;;;;;;17.17;15.40;;;10.20;99.90;;;;;;5071453;28;20357;-74
2022/04/26 04:29:31;;;;;;;16.95;15.27;;;10.10;99.90;;;;;;5082413;28;20042;-74
2022/04/26 04:31:57;;;;;;;18.67;16.70;;;10.10;99.90;;;;;;5075606;28;20073;-75
2022/04/26 04:34:23;;;;;;;17.55;15.18;;;10.00;99.90;;;;;;5069954;28;20029;-74
2022/04/26 04:36:49;;;;;;;18.17;16.38;;;10.00;99.90;;;;;;5076089;28;20028;-74
2022/04/26 04:39:19;;;;;;;18.38;16.48;;;10.00;99.90;;;;;;5073828;28;20039;-74
2022/04/26 04:41:48;;;;;;;18.00;16.30;;;10.00;99.90;;;;;;5070069;28;20101;-73
2022/04/26 04:44:13;;;;;;;18.30;16.48;;;10.00;99.90;;;;;;5072222;28;20032;-74
2022/04/26 04:46:39;;;;;;;19.73;17.67;;;10.00;99.90;;;;;;5072020;28;20013;-75
2022/04/26 04:49:04;;;;;;;20.13;18.02;;;9.90;99.90;;;;;;5074676;28;20456;-74
2022/04/26 04:51:30;;;;;;;19.17;17.25;;;9.90;99.90;;;;;;5076564;28;20369;-75
2022/04/26 04:53:56;;;;;;;19.65;17.58;;;9.90;99.90;;;;;;5074443;28;20101;-74
2022/04/26 04:56:24;;;;;;;18.40;16.20;;;10.00;99.90;;;;;;5072872;28;20054;-74
2022/04/26 04:58:50;;;;;;;19.17;17.23;;;10.00;99.90;;;;;;5077914;28;20027;-74
2022/04/26 05:01:16;;;;;;;23.92;17.75;;;10.00;99.90;;;;;;5071954;28;20994;-74
2022/04/26 05:03:41;;;;;;;21.83;16.50;;;10.00;99.90;;;;;;5075915;28;20020;-73
2022/04/26 05:06:07;;;;;;;18.27;16.40;;;10.00;99.90;;;;;;5074535;28;20103;-75
2022/04/26 05:08:33;;;;;;;17.73;15.95;;;10.20;99.90;;;;;;5073336;28;20017;-74
2022/04/26 05:10:59;;;;;;;18.65;16.75;;;10.20;99.90;;;;;;5076457;28;20032;-74
2022/04/26 05:13:25;;;;;;;20.10;17.00;;;10.10;99.90;;;;;;5073536;28;20032;-74
2022/04/26 05:15:50;;;;;;;21.63;16.10;;;10.10;99.90;;;;;;5078535;28;20036;-74
2022/04/26 05:18:16;;;;;;;17.67;15.98;;;10.10;99.90;;;;;;5079554;28;20029;-73
2022/04/26 05:20:42;;;;;;;18.05;16.17;;;10.30;99.90;;;;;;5079967;28;20028;-75
2022/04/26 05:25:51;;;;;;;19.17;17.02;;;10.20;99.90;;;;;;5078095;28;20040;-74
2022/04/26 05:28:17;;;;;;;18.35;16.45;;;10.30;99.90;;;;;;5072986;28;20021;-74
2022/04/26 05:30:42;;;;;;;19.73;17.58;;;10.50;99.90;;;;;;5067970;28;20017;-74
2022/04/26 05:33:08;;;;;;;20.70;17.58;;;10.40;99.90;;;;;;5068028;28;20050;-75
2022/04/26 05:35:34;;;;;;;22.90;18.23;;;10.40;99.90;;;;;;5077149;28;20031;-73
2022/04/26 05:37:59;;;;;;;21.38;18.75;;;10.40;99.90;;;;;;5075760;28;20020;-75
2022/04/26 05:40:25;;;;;;;20.63;18.60;;;10.40;99.90;;;;;;5071439;28;20052;-74
2022/04/26 05:42:50;;;;;;;25.27;19.98;;;10.40;99.90;;;;;;5071839;28;20090;-73
2022/04/26 05:45:16;;;;;;;18.63;16.83;;;10.50;99.90;;;;;;5073662;28;21701;-75
2022/04/26 05:47:43;;;;;;;20.73;18.63;;;10.50;99.90;;;;;;5074773;28;20508;-75
2022/04/26 05:50:09;;;;;;;18.55;16.75;;;10.50;99.90;;;;;;5076761;28;20413;-74
2022/04/26 05:52:35;;;;;;;18.42;16.63;;;10.60;99.90;;;;;;5070727;28;20028;-74
2022/04/26 05:55:04;;;;;;;19.80;17.80;;;10.50;99.90;;;;;;5074135;28;20036;-74
2022/04/26 05:57:30;;;;;;;18.85;16.92;;;10.50;99.90;;;;;;5072193;28;20107;-75
2022/04/26 05:59:55;;;;;;;19.95;17.63;;;10.50;99.90;;;;;;5074822;28;20024;-74
2022/04/26 06:02:21;;;;;;;18.77;16.75;;;10.40;99.90;;;;;;5071741;28;20028;-74
2022/04/26 06:04:47;;;;;;;20.15;17.65;;;10.40;99.90;;;;;;5072655;28;20032;-74
2022/04/26 06:07:12;;;;;;;19.13;17.10;;;10.40;99.90;;;;;;5071113;28;20028;-75
2022/04/26 06:09:38;;;;;;;19.90;17.15;;;10.40;99.90;;;;;;5074227;28;20401;-75
2022/04/26 06:12:05;;;;;;;21.70;17.63;;;10.50;99.90;;;;;;5072278;28;20020;-73
2022/04/26 06:14:30;;;;;;;20.83;18.67;;;10.40;99.90;;;;;;5076917;28;20028;-74
2022/04/26 06:16:56;;;;;;;26.40;18.98;;;10.40;99.90;;;;;;5066490;28;20024;-74
2022/04/26 06:19:21;;;;;;;18.77;16.77;;;10.40;99.90;;;;;;5072204;28;20103;-74
2022/04/26 06:21:47;;;;;;;19.65;17.65;;;10.40;99.90;;;;;;5071890;28;20035;-74
2022/04/26 06:24:12;;;;;;;22.13;18.75;;;10.40;99.90;;;;;;5071424;28;20025;-74
2022/04/26 06:26:38;;;;;;;23.98;19.60;;;10.40;99.90;;;;;;5071676;28;20024;-74
2022/04/26 06:29:03;;;;;;;20.45;18.25;;;10.40;99.90;;;;;;5073780;28;20027;-73
2022/04/26 06:31:29;;;;;;;19.08;16.95;;;10.50;99.90;;;;;;5071610;28;20397;-74
2022/04/26 06:33:54;;;;;;;21.58;18.35;;;10.60;99.90;;;;;;5064635;28;20040;-74
2022/04/26 06:36:20;;;;;;;19.17;17.23;;;10.80;99.90;;;;;;5063620;28;20536;-74
2022/04/26 06:38:45;;;;;;;19.35;16.98;;;10.90;99.90;;;;;;5073964;28;20038;-74
2022/04/26 06:41:11;;;;;;;22.00;17.10;;;10.90;99.90;;;;;;5074799;28;20390;-74
2022/04/26 06:43:37;;;;;;;19.63;17.52;;;10.80;99.90;;;;;;5070637;28;20036;-74
2022/04/26 06:46:02;;;;;;;18.98;16.02;;;10.80;99.90;;;;;;5072645;28;20068;-74
2022/04/26 06:48:28;;;;;;;18.95;16.70;;;10.80;99.90;;;;;;5076203;28;20071;-74
2022/04/26 06:50:55;;;;;;;23.60;18.60;;;10.70;99.90;;;;;;5070451;28;20535;-74
2022/04/26 06:53:21;;;;;;;20.42;18.33;;;10.60;99.90;;;;;;5068298;28;20024;-74
2022/04/26 06:55:46;;;;;;;21.55;19.30;;;10.60;99.90;;;;;;5070511;28;20032;-74
2022/04/26 06:58:12;;;;;;;18.30;16.40;;;10.60;99.90;;;;;;5069715;28;20060;-73
2022/04/26 07:00:37;;;;;;;17.58;15.80;;;10.60;99.90;;;;;;5072723;28;20028;-73
2022/04/26 07:03:04;;;;;;;17.70;16.00;;;10.50;99.90;;;;;;5070623;28;20094;-73
2022/04/26 07:05:30;;;;;;;18.08;16.27;;;10.50;99.90;;;;;;5068560;28;20016;-74
2022/04/26 07:07:55;;;;;;;16.23;13.70;;;10.60;99.90;;;;;;5071623;28;20533;-74
2022/04/26 07:10:22;;;;;;;15.38;13.82;;;10.60;99.90;;;;;;5066308;28;20013;-76
2022/04/26 07:12:48;;;;;;;16.33;14.73;;;10.60;99.90;;;;;;5063399;28;20814;-75
2022/04/26 07:15:13;;;;;;;14.20;12.85;;;10.60;99.90;;;;;;5069679;28;20021;-74
2022/04/26 07:17:40;;;;;;;12.43;11.15;;;10.60;99.90;;;;;;5070176;28;20027;-75
2022/04/26 07:20:08;;;;;;;12.35;11.27;;;10.60;99.90;;;;;;5067073;28;20028;-74
2022/04/26 07:22:34;;;;;;;11.70;10.60;;;10.70;99.90;;;;;;5070906;28;20074;-76
2022/04/26 07:24:59;;;;;;;11.45;10.35;;;10.80;99.90;;;;;;5069517;28;20048;-75
2022/04/26 07:27:25;;;;;;;12.60;9.73;;;10.90;99.90;;;;;;5068195;28;20012;-75
2022/04/26 07:29:51;;;;;;;10.30;9.40;;;11.00;99.90;;;;;;5069445;28;20385;-75
2022/04/26 07:32:17;;;;;;;9.52;8.63;;;11.10;99.90;;;;;;5063230;28;20028;-76
2022/04/26 07:34:45;;;;;;;9.77;8.88;;;11.30;99.90;;;;;;5071166;28;20362;-74
2022/04/26 07:37:11;;;;;;;9.55;8.75;;;11.50;99.90;;;;;;5067399;28;20108;-74
2022/04/26 07:39:36;;;;;;;9.77;8.98;;;11.70;99.90;;;;;;5068881;28;20404;-75
2022/04/26 07:42:04;;;;;;;10.10;9.20;;;11.70;99.90;;;;;;5073165;28;20044;-74
2022/04/26 07:44:30;;;;;;;9.45;8.65;;;11.60;99.90;;;;;;5071513;28;20024;-75
2022/04/26 07:46:57;;;;;;;10.13;9.18;;;11.70;99.90;;;;;;5076019;28;20028;-76
2022/04/26 07:49:23;;;;;;;10.73;9.82;;;11.70;99.90;;;;;;5069691;28;20040;-75
2022/04/26 07:51:50;;;;;;;10.63;9.63;;;11.60;99.90;;;;;;5071323;28;20381;-75
2022/04/26 07:54:16;;;;;;;9.38;8.40;;;11.60;99.90;;;;;;5072678;28;20031;-75
2022/04/26 07:56:43;;;;;;;9.45;8.52;;;11.60;99.90;;;;;;5072740;28;20041;-75
2022/04/26 07:59:08;;;;;;;8.52;7.72;;;11.60;99.90;;;;;;5073459;28;20025;-73
2022/04/26 08:01:35;;;;;;;8.35;7.55;;;11.50;99.90;;;;;;5073042;28;20499;-74
2022/04/26 08:04:01;;;;;;;8.75;8.05;;;11.60;99.90;;;;;;5072615;28;20021;-75
2022/04/26 08:06:27;;;;;;;8.52;7.38;;;11.70;99.90;;;;;;5071586;28;20354;-75
2022/04/26 08:08:54;;;;;;;8.32;7.65;;;11.80;99.90;;;;;;5071756;28;20087;-75
2022/04/26 08:11:20;;;;;;;8.27;7.53;;;11.80;99.90;;;;;;5072705;28;20438;-73
2022/04/26 08:13:46;;;;;;;8.75;8.05;;;11.90;99.90;;;;;;5074337;28;20468;-76
2022/04/26 08:16:12;;;;;;;8.27;7.57;;;11.90;99.90;;;;;;5072547;28;20389;-74
2022/04/26 08:18:37;;;;;;;7.78;7.07;;;11.90;99.90;;;;;;5069742;28;20025;-75
2022/04/26 08:21:06;;;;;;;7.78;7.18;;;11.90;99.90;;;;;;5073549;28;20481;-75
2022/04/26 08:29:07;;;;;;;8.57;7.47;;;11.90;99.90;;;;;;5073271;28;20443;-75
2022/04/26 08:31:33;;;;;;;8.43;7.63;;;12.10;99.90;;;;;;5072131;28;20012;-75
2022/04/26 08:33:59;;;;;;;7.82;7.15;;;12.10;99.90;;;;;;5066317;28;20033;-75
2022/04/26 08:36:24;;;;;;;7.93;7.13;;;12.10;99.90;;;;;;5071664;28;20036;-74
2022/04/26 08:38:50;;;;;;;8.20;7.43;;;12.20;99.90;;;;;;5072344;28;20020;-74
2022/04/26 08:41:15;;;;;;;8.52;7.63;;;12.30;99.90;;;;;;5072360;28;20056;-73
2022/04/26 08:43:41;;;;;;;7.80;7.05;;;12.40;99.90;;;;;;5073205;28;20126;-75
2022/04/26 08:46:07;;;;;;;13.32;6.90;;;12.60;99.90;;;;;;5072188;28;20466;-74
2022/04/26 08:51:17;;;;;;;7.47;6.78;;;12.90;99.90;;;;;;5078777;28;20028;-75
2022/04/26 08:53:44;;;;;;;7.40;6.70;;;13.00;99.90;;;;;;5072255;28;20017;-75
2022/04/26 08:56:10;;;;;;;7.80;7.10;;;13.10;99.90;;;;;;5071928;28;20024;-75
2022/04/26 08:58:36;;;;;;;7.63;6.88;;;13.10;99.90;;;;;;5073234;28;20032;-74
2022/04/26 09:01:18;;;;;;;8.57;7.82;;;13.30;99.90;;;;;;5073363;28;20033;-75
2022/04/26 09:03:55;;;;;;;7.60;6.90;;;13.30;99.90;;;;;;5077062;28;20055;-75
2022/04/26 09:06:36;;;;;;;7.25;6.55;;;13.20;99.90;;;;;;5070791;28;20020;-73
2022/04/26 09:09:10;;;;;;;7.53;6.82;;;12.90;99.90;;;;;;5073122;28;20030;-74
2022/04/26 09:11:37;;;;;;;7.28;6.60;;;12.80;99.90;;;;;;5070798;28;20016;-74
2022/04/26 09:14:05;;;;;;;7.50;6.75;;;12.70;99.90;;;;;;5075214;28;20516;-75
2022/04/26 09:16:31;;;;;;;8.52;7.07;;;12.60;99.90;;;;;;5072889;28;20103;-74
2022/04/26 09:19:05;;;;;;;7.63;6.80;;;12.60;99.90;;;;;;5072956;28;20509;-74
2022/04/26 09:21:34;;;;;;;8.00;7.22;;;12.60;99.90;;;;;;5081729;28;20511;-72
2022/04/26 09:24:01;;;;;;;7.75;6.63;;;12.80;99.90;;;;;;5073679;28;20024;-74
2022/04/26 09:26:38;;;;;;;8.35;7.53;;;12.70;99.90;;;;;;5073676;28;20024;-74
2022/04/26 09:29:08;;;;;;;8.02;7.32;;;12.80;99.90;;;;;;5069379;28;20027;-75
2022/04/26 09:31:37;;;;;;;7.32;6.57;;;13.00;99.90;;;;;;5071230;28;20503;-74
2022/04/26 09:34:09;;;;;;;7.72;6.90;;;13.30;99.90;;;;;;5071426;28;20201;-75
2022/04/26 09:36:46;;;;;;;7.38;6.57;;;13.50;99.90;;;;;;5068759;28;20149;-75
2022/04/26 09:39:17;;;;;;;8.43;6.18;;;13.90;99.90;;;;;;5071458;28;20029;-75
2022/04/26 09:41:48;;;;;;;;;;;14.20;99.90;;;;;;5071335;28;20107;-74
2022/04/26 09:44:13;;;;;;;6.80;6.20;;;14.40;99.90;;;;;;5071668;28;19916;-74
2022/04/26 09:46:54;;;;;;;8.65;5.40;;;14.50;99.90;;;;;;5082627;28;20428;-74
2022/04/26 09:49:24;;;;;;;6.60;5.90;;;14.20;99.90;;;;;;5073915;28;20060;-74
2022/04/26 09:51:54;;;;;;;7.28;5.18;;;13.80;99.90;;;;;;5070014;28;20477;-74
2022/04/26 09:54:23;;;;;;;6.18;5.57;;;13.80;99.90;;;;;;5070893;28;20040;-75
2022/04/26 09:56:49;;;;;;;6.20;5.32;;;13.90;99.90;;;;;;5067957;28;20039;-76
2022/04/26 09:59:28;;;;;;;7.05;5.10;;;14.20;99.90;;;;;;5072408;28;20032;-74
2022/04/26 10:01:59;;;;;;;7.80;5.18;;;14.50;99.90;;;;;;5068385;28;20020;-74
2022/04/26 10:04:29;;;;;;;5.07;4.65;;;15.00;99.90;;;;;;5066021;28;20043;-73
2022/04/26 10:07:05;;;;;;;4.88;4.47;;;15.20;99.90;;;;;;5071084;28;20024;-75
2022/04/26 10:09:31;;;;;;;6.80;4.93;;;14.50;99.90;;;;;;5073085;28;20381;-74
2022/04/26 10:11:59;;;;;;;6.53;4.50;;;14.30;99.90;;;;;;5071608;28;20016;-76
2022/04/26 10:14:27;;;;;;;6.80;4.43;;;14.50;99.90;;;;;;5068133;28;20024;-74
2022/04/26 10:16:53;;;;;;;4.95;4.45;;;14.70;99.90;;;;;;5070353;28;20025;-74
2022/04/26 10:19:19;;;;;;;4.50;3.95;;;14.40;99.90;;;;;;5072764;28;20031;-75
2022/04/26 10:21:49;;;;;;;4.68;4.18;;;14.50;99.90;;;;;;5070678;28;20040;-75
2022/04/26 10:24:18;;;;;;;6.47;3.90;;;14.40;99.90;;;;;;5069910;28;20098;-74
2022/04/26 10:26:44;;;;;;;5.47;4.50;;;14.30;99.90;;;;;;5071323;28;20012;-76
2022/04/26 10:29:09;;;;;;;5.60;4.35;;;14.30;99.90;;;;;;5076739;28;20085;-74
2022/04/26 10:31:41;;;;;;;4.22;3.55;;;14.60;99.90;;;;;;5069924;28;20443;-75
2022/04/26 10:34:24;;;;;;;7.53;4.78;;;15.00;99.90;;;;;;5071044;28;20540;-74
2022/04/26 10:36:55;;;;;;;3.75;3.40;;;15.30;99.90;;;;;;5073001;28;20032;-74
2022/04/26 10:39:23;;;;;;;5.07;4.15;;;15.60;99.90;;;;;;5071664;28;20016;-75
2022/04/26 10:41:49;;;;;;;5.05;3.75;;;16.20;99.90;;;;;;5074857;28;20020;-74
2022/04/26 10:44:17;;;;;;;5.43;4.07;;;16.50;99.70;;;;;;5065467;28;20448;-76
2022/04/26 10:46:45;;;;;;;4.65;4.22;;;16.70;98.70;;;;;;5071428;28;20078;-75
2022/04/26 10:49:22;;;;;;;5.82;3.53;;;16.90;99.00;;;;;;5074456;28;20077;-75
2022/04/26 10:51:48;;;;;;;3.65;3.20;;;16.70;98.40;;;;;;5066534;28;20103;-75
2022/04/26 10:54:13;;;;;;;3.75;3.45;;;16.10;97.60;;;;;;5072829;28;20455;-74
2022/04/26 10:56:39;;;;;;;3.90;3.03;;;15.70;97.60;;;;;;5067901;28;20338;-75
2022/04/26 10:59:12;;;;;;;5.15;3.30;;;15.50;97.80;;;;;;5073179;28;20017;-74
2022/04/26 11:01:39;;;;;;;4.32;3.85;;;15.00;98.60;;;;;;5069122;28;20024;-75
2022/04/26 11:04:05;;;;;;;4.68;4.05;;;15.00;98.50;;;;;;5067346;28;20678;-75
2022/04/26 11:06:39;;;;;;;5.03;3.30;;;15.20;99.10;;;;;;5067787;28;20036;-75
2022/04/26 11:09:08;;;;;;;4.07;3.22;;;15.80;98.00;;;;;;5070042;28;20048;-75
2022/04/26 11:11:53;;;;;;;4.90;3.03;;;16.00;96.70;;;;;;5069859;28;20496;-75
2022/04/26 11:14:20;;;;;;;3.88;2.88;;;16.00;96.60;;;;;;5071315;28;20044;-76
2022/04/26 11:17:00;;;;;;;9.40;3.28;;;16.10;94.70;;;;;;5069581;28;20025;-74
2022/04/26 11:19:33;;;;;;;4.60;4.22;;;15.50;97.00;;;;;;5079382;28;20029;-74
2022/04/26 11:22:06;;;;;;;7.05;5.60;;;14.00;99.90;;;;;;5074599;28;20103;-75
2022/04/26 11:30:02;;;;;;;6.43;5.93;;;13.30;99.90;;;;;;5076435;28;20043;-75
2022/04/26 11:32:32;;;;;;;6.72;5.78;;;13.60;99.90;;;;;;5081539;28;20017;-75
2022/04/26 11:34:59;;;;;;;5.57;4.97;;;13.50;99.90;;;;;;5068085;28;20345;-75
2022/04/26 11:37:24;;;;;;;5.75;5.22;;;13.00;99.90;;;;;;5073814;28;20074;-75
2022/04/26 11:39:50;;;;;;;7.07;5.30;;;13.10;99.90;;;;;;5076995;28;20051;-75
2022/04/26 11:42:16;;;;;;;7.78;4.90;;;13.20;99.90;;;;;;5074558;28;20724;-74
2022/04/26 11:45:04;;;;;;;5.55;5.07;;;13.40;99.90;;;;;;5069984;28;20497;-75
2022/04/26 11:47:41;;;;;;;4.95;4.55;;;13.60;99.90;;;;;;5075788;28;20020;-75
2022/04/26 11:50:11;;;;;;;4.38;4.05;;;13.70;99.90;;;;;;5069663;28;20017;-74
2022/04/26 11:52:37;;;;;;;5.70;5.13;;;13.50;99.90;;;;;;5074337;28;20048;-75
2022/04/26 11:55:04;;;;;;;4.45;3.95;;;13.20;99.90;;;;;;5075911;28;20087;-75
2022/04/26 11:57:31;;;;;;;6.00;5.35;;;13.10;99.90;;;;;;5071761;28;20385;-76
2022/04/26 11:59:58;;;;;;;7.25;4.93;;;13.20;99.90;;;;;;5073365;28;20023;-75
2022/04/26 12:02:25;;;;;;;5.63;4.93;;;12.90;99.90;;;;;;5072301;28;20020;-74
2022/04/26 12:04:51;;;;;;;6.00;4.80;;;12.80;99.90;;;;;;5072797;28;20033;-74
2022/04/26 12:07:17;;;;;;;4.93;4.50;;;13.20;99.90;;;;;;5067902;28;20476;-74
2022/04/26 12:09:43;;;;;;;4.55;4.15;;;13.70;99.90;;;;;;5074403;28;20028;-75
2022/04/26 12:12:10;;;;;;;5.00;4.50;;;14.00;99.90;;;;;;5073617;28;20020;-75
2022/04/26 12:14:40;;;;;;;4.80;3.97;;;14.20;99.90;;;;;;5074578;28;20017;-75
2022/04/26 12:17:17;;;;;;;3.47;3.17;;;14.30;99.90;;;;;;5072221;28;20032;-75
2022/04/26 12:19:50;;;;;;;4.20;3.80;;;14.40;99.90;;;;;;5077524;28;20043;-75
2022/04/26 12:22:15;;;;;;;8.77;3.60;;;13.90;99.90;;;;;;5072633;28;20033;-75
2022/04/26 12:24:49;;;;;;;3.90;3.53;;;13.70;99.90;;;;;;5076178;28;20016;-75
2022/04/26 12:27:17;;;;;;;5.10;4.07;;;13.70;99.90;;;;;;5074101;28;20029;-74
2022/04/26 12:29:48;;;;;;;6.60;5.05;;;13.50;99.90;;;;;;5077687;28;20070;-77
2022/04/26 12:32:17;;;;;;;5.55;5.05;;;13.40;99.90;;;;;;5069726;28;20099;-74
2022/04/26 12:34:50;;;;;;;9.07;5.60;;;13.30;99.90;;;;;;5071100;28;20025;-75
2022/04/26 12:37:20;;;;;;;6.85;5.38;;;13.40;99.90;;;;;;5070399;28;20025;-75
2022/04/26 12:39:52;;;;;;;5.47;4.75;;;13.30;99.90;;;;;;5069858;28;20024;-75
2022/04/26 12:42:27;;;;;;;3.80;3.50;;;13.30;99.90;;;;;;5070273;28;20401;-74
2022/04/26 12:44:55;;;;;;;6.85;2.45;;;13.00;99.90;;;;;;5068342;28;20516;-75
2022/04/26 12:50:29;;;;;;;3.05;2.40;;;12.30;99.90;;;;;;5073196;28;20040;-76
2022/04/26 12:52:57;;;;;;;2.47;2.28;;;12.40;99.90;;;;;;5067883;28;20562;-75
2022/04/26 12:55:33;;;;;;;3.35;2.15;;;12.00;99.90;;;;;;5071053;28;20402;-75
2022/04/26 12:58:03;;;;;;;2.65;2.45;;;12.00;99.90;;;;;;5073961;28;20025;-75
2022/04/26 13:00:29;;;;;;;5.13;2.40;;;11.70;99.90;;;;;;5071690;28;20020;-75
2022/04/26 13:03:03;;;;;;;2.40;1.90;;;11.70;99.90;;;;;;5074184;28;20031;-74
2022/04/26 13:05:45;;;;;;;3.08;2.72;;;11.40;99.90;;;;;;5072625;28;20089;-75
2022/04/26 13:08:11;;;;;;;3.78;2.28;;;11.40;99.90;;;;;;5071957;28;20032;-75
2022/04/26 13:10:40;;;;;;;5.47;2.13;;;11.40;99.90;;;;;;5073105;28;20021;-74
2022/04/26 13:13:06;;;;;;;2.33;2.13;;;11.50;99.90;;;;;;5072313;28;20551;-75
2022/04/26 13:15:32;;;;;;;3.83;2.05;;;11.50;99.90;;;;;;5070664;28;20025;-76
2022/04/26 13:17:59;;;;;;;2.95;1.85;;;11.60;99.90;;;;;;5071649;28;20082;-75
2022/04/26 13:20:25;;;;;;;1.77;1.67;;;11.90;99.90;;;;;;5072818;28;20040;-74
2022/04/26 13:22:50;;;;;;;2.05;1.85;;;12.00;99.90;;;;;;5072136;28;20044;-74
2022/04/26 13:25:16;;;;;;;1.80;1.70;;;12.30;99.90;;;;;;5070037;28;20075;-74
2022/04/26 13:27:41;;;;;;;1.75;1.63;;;12.50;99.90;;;;;;5073126;28;20414;-76
2022/04/26 13:30:08;;;;;;;2.25;1.90;;;12.80;99.90;;;;;;5072663;28;20033;-75
2022/04/26 13:32:34;;;;;;;1.75;1.65;;;12.90;99.90;;;;;;5073315;28;20033;-75
2022/04/26 13:35:00;;;;;;;1.48;1.38;;;13.30;99.90;;;;;;5072947;28;20078;-75
2022/04/26 13:37:27;;;;;;;2.25;1.73;;;13.80;99.90;;;;;;5075112;28;20107;-73
2022/04/26 13:39:54;;;;;;;1.52;1.42;;;14.20;99.90;;;;;;5073857;28;20112;-74
2022/04/26 13:42:21;;;;;;;1.70;1.60;;;14.10;99.90;;;;;;5076942;28;20408;-75
2022/04/26 13:44:47;;;;;;;2.08;1.88;;;13.80;99.90;;;;;;5073637;28;20464;-74
2022/04/26 13:47:12;;;;;;;1.83;1.73;;;13.80;99.90;;;;;;5067949;28;20047;-74
2022/04/26 13:49:41;;;;;;;2.47;1.85;;;13.40;99.90;;;;;;5072997;28;20552;-74
2022/04/26 13:52:09;;;;;;;2.33;1.73;;;13.40;99.90;;;;;;5072361;28;20457;-74
2022/04/26 13:54:35;;;;;;;1.80;1.70;;;13.30;99.90;;;;;;5066695;28;20016;-75
2022/04/26 13:57:01;;;;;;;4.47;2.10;;;13.10;99.90;;;;;;5064122;28;20077;-73
2022/04/26 13:59:27;;;;;;;1.80;1.70;;;13.20;99.90;;;;;;5071929;28;20024;-75
2022/04/26 14:01:54;;;;;;;2.28;1.58;;;13.00;99.90;;;;;;5073796;28;20111;-75
2022/04/26 14:04:21;;;;;;;1.50;1.40;;;13.00;99.90;;;;;;5072328;28;20564;-74
2022/04/26 14:06:47;;;;;;;2.85;1.85;;;13.30;99.90;;;;;;5077579;28;20486;-77
2022/04/26 14:09:12;;;;;;;2.15;1.92;;;13.60;99.90;;;;;;5071624;28;20025;-74
2022/04/26 14:11:38;;;;;;;2.30;2.10;;;13.50;99.90;;;;;;5070014;28;20032;-74
2022/04/26 14:22:16;;;;;;;2.28;2.08;;;13.80;99.90;;;;;;5070558;28;20036;-75
2022/04/26 14:24:42;;;;;;;4.55;2.97;;;13.70;99.90;;;;;;5064463;28;20396;-75
2022/04/26 14:27:08;;;;;;;2.80;2.60;;;13.70;99.90;;;;;;5071260;28;20021;-76
2022/04/26 14:29:34;;;;;;;3.03;2.67;;;13.80;99.90;;;;;;5070528;28;20020;-75
2022/04/26 14:32:00;;;;;;;2.30;2.10;;;13.50;99.90;;;;;;5070003;28;20024;-75
2022/04/26 14:34:26;;;;;;;2.33;1.90;;;13.60;99.90;;;;;;5073308;28;20108;-75
2022/04/26 14:36:51;;;;;;;2.67;2.47;;;13.40;99.90;;;;;;5071866;28;20048;-75
2022/04/26 14:39:17;;;;;;;2.40;2.20;;;13.20;99.90;;;;;;5077273;28;20081;-75
2022/04/26 14:41:43;;;;;;;2.88;2.58;;;13.30;99.90;;;;;;5081056;28;20035;-76
2022/04/26 14:44:08;;;;;;;2.58;2.30;;;13.60;99.90;;;;;;5072066;28;20035;-76
2022/04/26 14:46:35;;;;;;;3.63;2.45;;;13.80;99.90;;;;;;5072970;28;20028;-76
2022/04/26 14:49:01;;;;;;;2.90;2.60;;;13.90;99.90;;;;;;5073214;28;20385;-75
2022/04/26 14:51:26;;;;;;;2.92;2.55;;;13.60;99.90;;;;;;5070019;28;20473;-75
2022/04/26 14:53:52;;;;;;;2.67;2.47;;;13.90;99.90;;;;;;5070542;28;20039;-74
2022/04/26 14:56:18;;;;;;;1.88;1.77;;;14.10;99.90;;;;;;5070918;28;20020;-74
2022/04/26 14:58:43;;;;;;;2.40;2.22;;;14.50;98.80;;;;;;5071949;28;20013;-76
2022/04/26 15:01:10;;;;;;;3.00;2.22;;;14.10;98.70;;;;;;5073189;28;20029;-74
2022/04/26 15:03:36;;;;;;;2.40;2.05;;;13.70;99.20;;;;;;5075197;28;20028;-74
2022/04/26 15:06:02;;;;;;;2.50;2.30;;;13.80;99.50;;;;;;5072014;28;20020;-74
2022/04/26 15:11:11;;;;;;;2.92;1.90;;;13.50;99.90;;;;;;5071263;28;20114;-75
2022/04/26 15:16:39;;;;;;;2.25;2.05;;;13.70;99.90;;;;;;5080874;28;20538;-75
2022/04/26 15:19:12;;;;;;;4.10;2.53;;;13.50;99.90;;;;;;5069640;28;20048;-75
2022/04/26 15:21:38;;;;;;;2.20;1.88;;;13.30;99.90;;;;;;5071007;28;20503;-76
2022/04/26 15:24:05;;;;;;;3.17;2.88;;;13.30;99.90;;;;;;5074079;28;20059;-74
2022/04/26 15:26:31;;;;;;;3.97;2.17;;;13.20;99.90;;;;;;5071931;28;20012;-75
2022/04/26 15:28:57;;;;;;;2.60;2.33;;;13.20;99.90;;;;;;5078184;28;20073;-76
2022/04/26 15:31:23;;;;;;;2.60;2.40;;;13.10;99.90;;;;;;5073933;28;20393;-74
2022/04/26 15:33:51;;;;;;;2.60;2.40;;;13.10;99.90;;;;;;5077738;28;20492;-75
2022/04/26 15:36:19;;;;;;;4.97;3.08;;;13.10;99.90;;;;;;5072185;28;20024;-75
2022/04/26 15:38:45;;;;;;;6.20;2.35;;;13.00;99.90;;;;;;5073258;28;20028;-74
2022/04/26 15:41:12;;;;;;;2.33;2.10;;;12.80;99.90;;;;;;5072555;28;20025;-74
2022/04/26 15:43:38;;;;;;;2.00;1.80;;;12.70;99.90;;;;;;5064612;28;20581;-75
2022/04/26 15:46:06;;;;;;;3.38;3.15;;;12.70;99.90;;;;;;5070619;28;20052;-75
2022/04/26 15:48:34;;;;;;;3.75;3.40;;;12.30;99.90;;;;;;5071846;28;20434;-74
2022/04/26 15:51:00;;;;;;;4.20;3.05;;;11.80;99.90;;;;;;5074164;28;20020;-76
2022/04/26 15:53:25;;;;;;;4.00;3.60;;;11.70;99.90;;;;;;5072023;28;20028;-75
2022/04/26 15:55:51;;;;;;;2.92;2.72;;;11.40;99.90;;;;;;5070573;28;20024;-75
2022/04/26 15:58:17;;;;;;;3.95;3.20;;;11.40;99.90;;;;;;5076795;28;20031;-75
2022/04/26 16:00:44;;;;;;;2.75;2.55;;;11.40;99.90;;;;;;5070655;28;20051;-75
2022/04/26 16:03:09;;;;;;;2.38;2.17;;;11.50;99.90;;;;;;5070638;28;20016;-75
2022/04/26 16:05:36;;;;;;;2.47;2.10;;;11.60;99.90;;;;;;5072769;28;20109;-74
2022/04/26 16:08:03;;;;;;;2.35;2.15;;;11.60;99.90;;;;;;5077093;28;20044;-75
2022/04/26 16:21:25;;;;;;;2.90;2.63;;;11.30;99.90;;;;;;5066239;28;20416;-75
2022/04/26 16:23:53;;;;;;;3.13;2.90;;;11.30;99.90;;;;;;5073854;28;20028;-76
2022/04/26 16:26:20;;;;;;;3.35;3.10;;;11.10;99.90;;;;;;5071259;28;20017;-76
2022/04/26 16:28:47;;;;;;;2.70;2.50;;;11.10;99.90;;;;;;5083236;28;20019;-75
2022/04/26 16:31:13;;;;;;;4.30;2.58;;;11.10;99.90;;;;;;5072633;28;20032;-74
2022/04/26 16:33:39;;;;;;;4.07;2.40;;;11.10;99.90;;;;;;5075533;28;20017;-75
2022/04/26 16:36:07;;;;;;;3.08;2.65;;;11.20;99.90;;;;;;5071762;28;20039;-75
2022/04/26 16:38:32;;;;;;;2.30;2.10;;;11.30;99.90;;;;;;5074403;28;20036;-75
2022/04/26 16:40:58;;;;;;;3.78;2.00;;;11.20;99.90;;;;;;5074367;28;20032;-75
2022/04/26 16:43:24;;;;;;;3.55;2.38;;;11.30;99.90;;;;;;5072484;28;20582;-74
2022/04/26 16:45:49;;;;;;;2.20;2.00;;;11.20;99.90;;;;;;5065242;28;20029;-74
2022/04/26 16:48:15;;;;;;;2.30;2.10;;;11.20;99.90;;;;;;5071482;28;20016;-76
2022/04/26 16:50:41;;;;;;;2.10;1.80;;;11.10;99.90;;;;;;5076389;28;20538;-74
2022/04/26 16:53:07;;;;;;;2.00;1.67;;;10.90;99.90;;;;;;5073675;28;20137;-76
2022/04/26 16:55:33;;;;;;;1.80;1.50;;;10.90;99.90;;;;;;5070914;28;20052;-75
2022/04/26 16:58:01;;;;;;;2.80;1.63;;;10.80;99.90;;;;;;5071835;28;20104;-75
2022/04/26 17:00:28;;;;;;;1.60;1.50;;;10.90;99.90;;;;;;5071956;28;20047;-74
2022/04/26 17:02:54;;;;;;;1.40;1.30;;;10.80;99.90;;;;;;5079003;28;20035;-74